Elena Of London — 2COR3 — position and weather

sailwx.info

Track history (hours):
 
Tides and Currents Weather Stations Pressure Air Temp Water Temp Dewpoint Dewpoint Depression Visibility Wind Speed Wind Dir Waves Ship Positions

Elena Of London

Last reported at 2014-Dec-21 18:11 UTC. Time now 2014-Dec-21 18:43 UTC.
Position N 17°00' W 061°46'.

Length 44 m; draft 5.2 m.

Type: Sailing vessel. MMSI: 235074534.

Date/timePositionNaut miles runAvg speedWind from/ knotsBaromVisibWave heightAir tempDewpointWater temp
2014-Dec-21 18:11N 17°00' W 061°46'0 0.0
2014-Dec-21 17:33N 17°00' W 061°46'0 0.0
2014-Dec-21 16:33N 17°00' W 061°46'0 0.3
2014-Dec-21 15:33N 17°00' W 061°46'4 4.0
2014-Dec-21 14:33N 16°57' W 061°48'8 8.3
2014-Dec-21 13:33N 16°49' W 061°49'9 8.9
2014-Dec-21 12:33N 16°40' W 061°50'8 8.3
2014-Dec-21 11:33N 16°31' W 061°50'9 9.0
2014-Dec-21 10:31N 16°22' W 061°50'28 9.1
2014-Dec-21 07:28N 15°54' W 061°46'  
Track history (hours):
 
Tides and Currents Weather Stations Pressure Air Temp Water Temp Dewpoint Dewpoint Depression Visibility Wind Speed Wind Dir Waves Ship Positions

Elena Of London

Last reported at 2014-Dec-21 18:11 UTC. Time now 2014-Dec-21 18:43 UTC.
Position N 17°00' W 061°46'.

Length 44 m; draft 5.2 m.

Type: Sailing vessel. MMSI: 235074534.

Date/timePositionNaut miles runAvg speedWind from/ knotsBaromVisibWave heightAir tempDewpointWater temp
2014-Dec-21 18:11N 17°00' W 061°46'0 0.0
2014-Dec-21 17:33N 17°00' W 061°46'0 0.0
2014-Dec-21 16:33N 17°00' W 061°46'0 0.3
2014-Dec-21 15:33N 17°00' W 061°46'4 4.0
2014-Dec-21 14:33N 16°57' W 061°48'8 8.3
2014-Dec-21 13:33N 16°49' W 061°49'9 8.9
2014-Dec-21 12:33N 16°40' W 061°50'8 8.3
2014-Dec-21 11:33N 16°31' W 061°50'9 9.0
2014-Dec-21 10:31N 16°22' W 061°50'28 9.1
2014-Dec-21 07:28N 15°54' W 061°46'  

Dump ship's entire track history